Time;durP1;ratioP1;P1;durP2;ratioP2;P2;SDS_P1;SDS_P2;PMS_P1;PMS_P2;Temp;Humidity;BMP_temperature;BMP_pressure;BME280_temperature;BME280_humidity;BME280_pressure;Samples;Min_cycle;Max_cycle;Signal;HPM_P1;HPM_P2
2022/05/26 00:01:13;;;;;;;0.75;0.40;;;12.30;99.90;;;;;;4992199;28;20031;-78
2022/05/26 00:03:42;;;;;;;0.30;0.30;;;12.40;99.90;;;;;;4992422;28;20030;-77
2022/05/26 00:06:10;;;;;;;2.35;0.32;;;12.40;99.90;;;;;;4977296;28;20542;-78
2022/05/26 00:08:37;;;;;;;1.27;0.30;;;12.50;99.90;;;;;;4978416;28;20035;-78
2022/05/26 00:11:09;;;;;;;0.40;0.30;;;12.50;99.90;;;;;;4995218;28;20073;-78
2022/05/26 00:13:36;;;;;;;0.88;0.50;;;12.50;99.90;;;;;;4994617;28;20470;-77
2022/05/26 00:16:03;;;;;;;0.93;0.40;;;12.40;99.90;;;;;;4978272;28;20384;-78
2022/05/26 00:18:28;;;;;;;2.08;0.40;;;12.40;99.90;;;;;;4993824;28;20451;-78
2022/05/26 00:20:55;;;;;;;1.35;0.40;;;12.40;99.90;;;;;;4973347;28;20054;-79
2022/05/26 00:23:21;;;;;;;0.95;0.30;;;12.40;99.90;;;;;;4989580;28;20019;-77
2022/05/26 00:25:47;;;;;;;0.35;0.35;;;12.50;99.90;;;;;;4990677;28;20593;-78
2022/05/26 00:28:13;;;;;;;0.38;0.38;;;12.50;99.90;;;;;;4975260;28;20113;-78
2022/05/26 00:30:39;;;;;;;0.47;0.40;;;12.50;99.90;;;;;;4974271;28;20380;-79
2022/05/26 00:33:07;;;;;;;0.80;0.30;;;12.50;99.90;;;;;;4976702;28;20027;-79
2022/05/26 00:35:34;;;;;;;1.98;0.40;;;12.40;99.90;;;;;;4979590;28;20380;-78
2022/05/26 00:38:04;;;;;;;1.30;0.30;;;12.40;99.90;;;;;;4980893;28;20031;-78
2022/05/26 00:40:30;;;;;;;;;;;12.30;99.90;;;;;;4997359;28;20033;-79
2022/05/26 00:42:56;;;;;;;0.50;0.30;;;12.30;99.90;;;;;;4996215;28;19906;-78
2022/05/26 00:45:22;;;;;;;0.57;0.30;;;12.20;99.90;;;;;;4980173;28;20027;-77
2022/05/26 00:47:48;;;;;;;2.50;1.02;;;12.20;99.90;;;;;;4980312;28;20260;-78
2022/05/26 00:50:32;;;;;;;0.40;0.40;;;12.20;99.90;;;;;;4979157;28;20030;-78
2022/05/26 00:53:29;;;;;;;0.45;0.32;;;12.20;99.90;;;;;;4980288;28;20425;-78
2022/05/26 00:56:07;;;;;;;0.63;0.40;;;12.10;99.90;;;;;;4988267;28;20414;-78
2022/05/26 00:58:40;;;;;;;0.38;0.30;;;12.10;99.90;;;;;;4997112;28;20042;-78
2022/05/26 01:01:06;;;;;;;0.30;0.30;;;11.80;99.90;;;;;;4963193;28;20046;-78
2022/05/26 01:03:38;;;;;;;4.60;1.40;;;11.80;99.90;;;;;;4978544;28;20601;-78
2022/05/26 01:06:13;;;;;;;0.40;0.40;;;11.80;99.90;;;;;;4980427;28;20384;-78
2022/05/26 01:08:48;;;;;;;3.85;0.57;;;11.80;99.90;;;;;;4980514;28;20031;-78
2022/05/26 01:11:14;;;;;;;0.30;0.30;;;11.80;99.90;;;;;;4980932;28;20464;-78
2022/05/26 01:13:45;;;;;;;0.65;0.30;;;11.70;99.90;;;;;;4981984;28;20084;-78
2022/05/26 01:16:36;;;;;;;0.93;0.55;;;11.80;99.90;;;;;;4981918;28;20054;-78
2022/05/26 01:19:20;;;;;;;1.42;0.32;;;11.80;99.90;;;;;;4979137;28;20039;-78
2022/05/26 01:21:55;;;;;;;0.55;0.20;;;11.80;99.90;;;;;;4981454;28;20034;-78
2022/05/26 01:24:21;;;;;;;0.30;0.30;;;11.80;99.90;;;;;;4993446;28;20270;-78
2022/05/26 01:27:21;;;;;;;0.85;0.35;;;11.80;99.90;;;;;;4977494;28;20031;-77
2022/05/26 01:30:09;;;;;;;1.65;0.30;;;11.80;99.90;;;;;;4992000;28;20027;-78
2022/05/26 01:32:53;;;;;;;0.20;0.20;;;11.90;99.90;;;;;;4979765;28;20025;-78
2022/05/26 01:35:57;;;;;;;0.30;0.30;;;11.90;99.90;;;;;;4978592;28;20046;-78
2022/05/26 01:38:47;;;;;;;0.30;0.30;;;12.00;99.90;;;;;;4978558;28;20510;-78
2022/05/26 01:41:28;;;;;;;0.47;0.43;;;12.10;99.90;;;;;;4996426;28;20130;-78
2022/05/26 01:44:17;;;;;;;0.70;0.20;;;12.20;99.90;;;;;;4997352;28;20384;-78
2022/05/26 01:46:44;;;;;;;3.40;0.30;;;12.30;99.90;;;;;;4998516;28;20518;-78
2022/05/26 01:49:27;;;;;;;0.73;0.30;;;12.30;99.90;;;;;;4995391;28;20109;-79
2022/05/26 01:52:04;;;;;;;0.45;0.20;;;12.30;99.90;;;;;;4977893;28;20396;-78
2022/05/26 01:54:45;;;;;;;6.15;1.02;;;12.30;99.90;;;;;;4981064;28;20130;-78
2022/05/26 01:57:18;;;;;;;0.47;0.30;;;12.30;99.90;;;;;;4998116;28;20034;-78
2022/05/26 01:59:52;;;;;;;1.73;0.30;;;12.20;99.90;;;;;;4982094;28;20043;-78
2022/05/26 02:02:24;;;;;;;0.45;0.30;;;12.10;99.90;;;;;;4981349;28;20030;-78
2022/05/26 02:05:16;;;;;;;0.50;0.50;;;12.30;99.90;;;;;;4991805;28;20029;-78
2022/05/26 02:08:02;;;;;;;1.13;0.30;;;12.40;99.90;;;;;;4974252;28;20193;-78
2022/05/26 02:10:38;;;;;;;0.52;0.20;;;12.60;99.90;;;;;;4991772;28;20113;-77
2022/05/26 02:13:31;;;;;;;0.30;0.30;;;12.60;99.90;;;;;;4976598;28;20023;-78
2022/05/26 02:16:04;;;;;;;3.80;0.32;;;12.60;99.90;;;;;;4955683;28;20121;-78
2022/05/26 02:18:53;;;;;;;0.30;0.30;;;12.70;99.90;;;;;;4996229;28;20030;-78
2022/05/26 02:21:30;;;;;;;0.47;0.35;;;12.70;99.90;;;;;;4991739;28;20022;-78
2022/05/26 02:24:08;;;;;;;0.57;0.40;;;12.70;99.90;;;;;;4977083;28;20023;-78
2022/05/26 02:26:35;;;;;;;0.30;0.30;;;12.80;99.90;;;;;;4976614;28;20022;-78
2022/05/26 02:31:48;;;;;;;2.20;0.40;;;12.80;99.90;;;;;;4980744;28;20058;-78
2022/05/26 02:34:16;;;;;;;1.27;0.20;;;12.90;99.90;;;;;;4976266;28;20026;-77
2022/05/26 02:36:43;;;;;;;0.52;0.52;;;12.80;99.90;;;;;;4978079;28;20042;-77
2022/05/26 02:39:09;;;;;;;0.43;0.30;;;12.90;99.90;;;;;;4983247;28;20023;-78
2022/05/26 02:41:37;;;;;;;2.35;0.35;;;12.90;99.90;;;;;;4984904;28;20114;-78
2022/05/26 02:44:05;;;;;;;2.17;0.30;;;12.90;99.90;;;;;;4981553;28;20027;-79
2022/05/26 02:46:52;;;;;;;2.65;0.60;;;12.90;99.90;;;;;;4983099;28;20054;-79
2022/05/26 02:49:24;;;;;;;1.30;1.00;;;12.90;99.90;;;;;;4980065;28;20030;-78
2022/05/26 02:52:10;;;;;;;2.85;1.13;;;12.90;99.90;;;;;;4976778;28;20026;-78
2022/05/26 02:54:53;;;;;;;0.77;0.30;;;12.90;99.90;;;;;;4989724;28;20086;-78
2022/05/26 02:57:25;;;;;;;0.95;0.30;;;12.90;99.90;;;;;;4972504;28;20186;-78
2022/05/26 03:00:05;;;;;;;0.30;0.30;;;12.80;99.90;;;;;;4989258;28;20050;-78
2022/05/26 03:03:12;;;;;;;1.60;0.30;;;12.70;99.90;;;;;;4973471;28;20547;-78
2022/05/26 03:05:48;;;;;;;0.55;0.40;;;12.70;99.90;;;;;;4940682;28;20039;-78
2022/05/26 03:08:18;;;;;;;0.22;0.20;;;12.70;99.90;;;;;;4983814;28;20411;-78
2022/05/26 03:10:49;;;;;;;1.88;0.30;;;12.50;99.90;;;;;;4988268;28;20027;-78
2022/05/26 03:13:15;;;;;;;0.63;0.30;;;12.40;99.90;;;;;;4982221;28;20511;-78
2022/05/26 03:15:40;;;;;;;1.88;0.38;;;12.50;99.90;;;;;;4993124;28;20050;-78
2022/05/26 03:18:06;;;;;;;2.20;0.50;;;12.50;99.90;;;;;;4991207;28;20042;-78
2022/05/26 03:20:32;;;;;;;0.30;0.30;;;12.50;99.90;;;;;;4972410;28;20033;-78
2022/05/26 03:22:58;;;;;;;0.30;0.30;;;12.50;99.90;;;;;;4973106;28;20026;-79
2022/05/26 03:25:24;;;;;;;0.20;0.20;;;12.50;99.90;;;;;;4971753;28;20037;-79
2022/05/26 03:27:50;;;;;;;0.30;0.30;;;12.60;99.90;;;;;;4990918;28;20023;-78
2022/05/26 03:30:17;;;;;;;0.68;0.28;;;12.80;99.90;;;;;;4988110;28;20027;-78
2022/05/26 03:32:43;;;;;;;0.40;0.40;;;12.90;99.90;;;;;;4988179;28;20035;-78
2022/05/26 03:40:56;;;;;;;0.30;0.22;;;13.20;99.90;;;;;;4973505;28;20547;-78
2022/05/26 03:43:36;;;;;;;0.35;0.30;;;13.30;99.90;;;;;;4988046;28;20035;-79
2022/05/26 03:46:02;;;;;;;0.20;0.20;;;13.40;99.90;;;;;;4973563;28;20011;-78
2022/05/26 03:48:28;;;;;;;1.60;0.32;;;13.40;99.90;;;;;;4987313;28;20415;-78
2022/05/26 03:50:54;;;;;;;0.20;0.20;;;13.40;99.90;;;;;;4973858;28;20027;-79
2022/05/26 03:53:20;;;;;;;0.25;0.25;;;;;;;;;;4988120;28;20031;-78
2022/05/26 03:55:46;;;;;;;0.52;0.30;;;13.50;99.90;;;;;;4987963;28;20118;-78
2022/05/26 03:58:13;;;;;;;0.82;0.10;;;13.50;99.90;;;;;;4972705;28;20054;-78
2022/05/26 04:00:39;;;;;;;0.20;0.20;;;;;;;;;;4974261;28;20114;-78
2022/05/26 04:03:04;;;;;;;0.60;0.30;;;13.70;99.90;;;;;;4987777;28;20019;-78
2022/05/26 04:05:30;;;;;;;0.30;0.20;;;13.70;99.90;;;;;;4975128;28;20033;-77
2022/05/26 04:07:57;;;;;;;2.75;0.30;;;13.80;99.90;;;;;;4989038;28;20101;-78
2022/05/26 04:10:22;;;;;;;1.40;0.17;;;13.80;99.90;;;;;;4992952;28;20050;-78
2022/05/26 04:12:48;;;;;;;0.30;0.30;;;13.80;99.90;;;;;;4992256;28;20466;-77
2022/05/26 04:15:16;;;;;;;0.45;0.30;;;13.90;99.90;;;;;;4974957;28;20031;-78
2022/05/26 04:17:42;;;;;;;0.82;0.20;;;13.90;99.90;;;;;;4989688;28;20051;-79
2022/05/26 04:20:10;;;;;;;5.38;0.75;;;13.90;99.90;;;;;;4974181;28;20030;-78
2022/05/26 04:22:36;;;;;;;2.10;0.20;;;14.00;99.90;;;;;;4990656;28;20270;-78
2022/05/26 04:25:02;;;;;;;0.20;0.20;;;14.00;99.90;;;;;;4977848;28;20309;-78
2022/05/26 04:27:31;;;;;;;0.35;0.20;;;14.10;99.90;;;;;;4977705;28;20491;-78
2022/05/26 04:29:57;;;;;;;3.10;0.30;;;14.10;99.90;;;;;;4992523;28;20143;-78
2022/05/26 04:32:23;;;;;;;6.50;0.40;;;14.10;99.90;;;;;;4973724;28;20034;-78
2022/05/26 04:34:51;;;;;;;0.25;0.17;;;14.00;99.90;;;;;;4993000;28;20027;-78
2022/05/26 04:37:18;;;;;;;1.05;0.43;;;14.00;99.90;;;;;;4991623;28;20045;-78
2022/05/26 04:39:45;;;;;;;2.58;0.32;;;;;;;;;;4973798;28;20026;-78
2022/05/26 04:42:11;;;;;;;2.25;0.28;;;14.00;99.90;;;;;;4975068;28;20102;-78
2022/05/26 04:44:39;;;;;;;1.30;0.20;;;14.00;99.90;;;;;;4989820;28;20113;-78
2022/05/26 04:47:06;;;;;;;0.27;0.20;;;14.10;99.90;;;;;;4974229;28;20030;-78
2022/05/26 04:49:32;;;;;;;0.60;0.20;;;14.10;99.90;;;;;;4988940;28;20019;-78
2022/05/26 04:51:58;;;;;;;0.85;0.20;;;14.10;99.90;;;;;;4989977;28;20031;-78
2022/05/26 04:54:25;;;;;;;4.47;0.95;;;14.10;99.90;;;;;;4989798;28;20057;-78
2022/05/26 04:56:54;;;;;;;1.20;0.35;;;14.20;99.90;;;;;;4974445;28;20064;-78
2022/05/26 04:59:20;;;;;;;;;;;14.20;99.90;;;;;;4975329;28;20058;-79
2022/05/26 05:01:45;;;;;;;1.48;0.40;;;14.20;99.90;;;;;;4991085;28;19906;-78
2022/05/26 05:04:11;;;;;;;0.20;0.20;;;14.20;99.90;;;;;;4975076;28;20027;-79
2022/05/26 05:06:37;;;;;;;1.02;0.20;;;14.10;99.90;;;;;;4991606;28;20082;-78
2022/05/26 05:09:03;;;;;;;0.57;0.20;;;14.20;99.90;;;;;;4991020;28;20042;-78
2022/05/26 05:11:29;;;;;;;1.27;0.20;;;14.20;99.90;;;;;;4975250;28;20111;-78
2022/05/26 05:13:55;;;;;;;0.75;0.20;;;14.10;99.90;;;;;;4974046;28;20055;-78
2022/05/26 05:16:42;;;;;;;1.55;0.30;;;14.20;99.90;;;;;;4975087;28;20484;-78
2022/05/26 05:19:08;;;;;;;0.30;0.30;;;14.10;99.90;;;;;;4988449;28;20034;-78
2022/05/26 05:21:41;;;;;;;0.30;0.20;;;14.10;99.90;;;;;;4989960;28;20099;-79
2022/05/26 05:24:34;;;;;;;2.63;0.28;;;14.10;99.90;;;;;;4972834;28;20031;-79
2022/05/26 05:27:05;;;;;;;0.20;0.20;;;14.10;99.90;;;;;;4989314;28;20035;-80
2022/05/26 05:29:35;;;;;;;0.47;0.30;;;14.10;99.90;;;;;;4988875;28;20026;-78
2022/05/26 05:32:17;;;;;;;0.20;0.20;;;14.20;99.90;;;;;;5008924;28;20038;-78
2022/05/26 05:34:49;;;;;;;0.57;0.38;;;14.30;99.90;;;;;;4997534;28;20034;-79
2022/05/26 05:37:16;;;;;;;2.60;0.30;;;14.40;99.90;;;;;;4991684;28;20093;-78
2022/05/26 05:39:41;;;;;;;1.15;0.30;;;14.50;99.90;;;;;;4989698;28;20503;-78
2022/05/26 05:42:08;;;;;;;0.45;0.15;;;14.60;99.90;;;;;;4974793;28;20058;-78
2022/05/26 05:44:34;;;;;;;0.45;0.40;;;14.70;99.90;;;;;;4976006;28;20093;-78
2022/05/26 05:47:01;;;;;;;0.35;0.35;;;14.80;99.90;;;;;;4977013;28;20019;-78
2022/05/26 05:49:29;;;;;;;0.90;0.20;;;14.90;99.90;;;;;;4977765;28;20376;-77
2022/05/26 05:51:57;;;;;;;0.30;0.20;;;15.00;99.90;;;;;;4974940;28;20026;-78
2022/05/26 05:54:23;;;;;;;1.92;1.38;;;15.10;99.90;;;;;;4973973;28;20023;-79
2022/05/26 05:56:49;;;;;;;0.22;0.22;;;15.10;99.90;;;;;;4983346;28;20038;-78
2022/05/26 05:59:16;;;;;;;0.68;0.30;;;;;;;;;;5000909;28;20047;-78
2022/05/26 06:01:41;;;;;;;0.20;0.20;;;15.20;99.90;;;;;;4980774;28;20107;-78
2022/05/26 06:04:08;;;;;;;1.50;0.30;;;15.30;99.90;;;;;;5000032;28;20018;-78
2022/05/26 06:06:43;;;;;;;0.77;0.32;;;15.70;99.90;;;;;;4984044;28;20041;-79
2022/05/26 06:09:13;;;;;;;0.82;0.30;;;15.90;99.90;;;;;;4997962;28;20066;-79
2022/05/26 06:11:40;;;;;;;0.20;0.15;;;16.80;99.90;;;;;;4983926;28;20090;-77
2022/05/26 06:14:06;;;;;;;1.88;0.25;;;17.20;99.90;;;;;;4984553;28;20014;-77
2022/05/26 06:16:32;;;;;;;0.73;0.10;;;17.10;99.90;;;;;;4982087;28;20045;-77
2022/05/26 06:18:58;;;;;;;0.85;0.20;;;16.70;99.90;;;;;;4982362;28;20023;-77
2022/05/26 06:21:24;;;;;;;0.20;0.17;;;16.40;99.90;;;;;;4982872;28;20102;-78
2022/05/26 06:23:56;;;;;;;0.65;0.20;;;16.20;99.90;;;;;;4992270;28;20023;-79
2022/05/26 06:26:23;;;;;;;0.40;0.20;;;16.20;99.90;;;;;;4979553;28;20050;-76
2022/05/26 06:31:34;;;;;;;4.47;0.22;;;16.20;99.90;;;;;;4976263;28;20058;-77
2022/05/26 06:39:28;;;;;;;1.95;0.28;;;16.40;99.90;;;;;;4972293;28;20049;-78
2022/05/26 06:42:06;;;;;;;0.80;0.60;;;17.00;99.90;;;;;;4973400;28;20445;-83
2022/05/26 06:44:38;;;;;;;1.80;0.40;;;17.90;99.90;;;;;;4974343;28;20034;-83
2022/05/26 06:47:14;;;;;;;0.10;0.10;;;18.60;94.40;;;;;;4973627;28;20038;-78
2022/05/26 06:49:41;;;;;;;0.40;0.28;;;19.40;81.70;;;;;;4972774;28;20042;-85
2022/05/26 06:52:08;;;;;;;0.32;0.30;;;19.30;70.70;;;;;;4974491;28;20033;-76
2022/05/26 06:54:36;;;;;;;1.38;0.13;;;19.50;72.90;;;;;;4967793;28;20120;-76
2022/05/26 06:57:04;;;;;;;0.13;0.10;;;19.80;67.50;;;;;;4969385;28;20476;-76
2022/05/26 06:59:29;;;;;;;0.80;0.10;;;20.50;65.40;;;;;;4969028;28;20043;-77
2022/05/26 07:01:55;;;;;;;0.93;0.20;;;21.10;63.30;;;;;;4967632;28;20061;-77
2022/05/26 07:04:22;;;;;;;1.30;0.20;;;21.10;62.60;;;;;;4969408;28;20031;-77
2022/05/26 07:06:50;;;;;;;1.52;0.73;;;21.60;62.30;;;;;;5000153;28;20027;-77
2022/05/26 07:09:16;;;;;;;1.10;0.10;;;21.40;61.20;;;;;;4968463;28;20081;-77
2022/05/26 07:11:42;;;;;;;1.20;0.10;;;20.70;60.90;;;;;;4967366;28;20101;-77
2022/05/26 07:14:08;;;;;;;1.30;0.10;;;20.20;60.60;;;;;;4968614;28;20023;-77
2022/05/26 07:16:34;;;;;;;0.63;0.20;;;20.10;62.10;;;;;;4966666;28;20484;-77
2022/05/26 07:18:59;;;;;;;1.73;0.20;;;20.20;63.70;;;;;;4968667;28;20113;-77
2022/05/26 07:21:25;;;;;;;0.63;0.10;;;20.70;63.70;;;;;;4968882;28;20027;-80
2022/05/26 07:23:51;;;;;;;1.45;0.08;;;21.10;60.70;;;;;;4969524;28;20106;-80
2022/05/26 07:26:17;;;;;;;1.30;0.20;;;20.80;62.10;;;;;;4969253;28;20034;-80
2022/05/26 07:28:44;;;;;;;3.22;0.88;;;21.10;60.70;;;;;;4969569;28;20027;-80
2022/05/26 07:31:12;;;;;;;0.47;0.10;;;20.80;62.40;;;;;;4969343;28;20027;-80
2022/05/26 07:33:38;;;;;;;0.40;0.22;;;20.90;61.20;;;;;;4985352;28;20027;-80
2022/05/26 07:36:04;;;;;;;0.30;0.20;;;20.70;62.80;;;;;;4985276;28;20042;-80
2022/05/26 07:41:24;;;;;;;0.85;0.10;;;21.10;62.10;;;;;;4970682;28;20511;-80
2022/05/26 07:43:54;;;;;;;1.48;0.65;;;20.50;61.90;;;;;;4970293;28;20081;-81
2022/05/26 07:46:21;;;;;;;0.88;0.20;;;20.90;63.20;;;;;;4969581;28;20027;-81
2022/05/26 07:48:48;;;;;;;0.15;0.15;;;20.70;62.50;;;;;;4969524;28;20504;-81
2022/05/26 07:51:15;;;;;;;0.88;0.40;;;20.90;61.10;;;;;;4986105;28;20118;-80
2022/05/26 07:53:40;;;;;;;1.25;0.10;;;21.20;60.80;;;;;;4969702;28;20399;-81
2022/05/26 07:56:06;;;;;;;0.30;0.10;;;21.10;63.00;;;;;;4971024;28;20079;-83
2022/05/26 07:58:34;;;;;;;0.47;0.20;;;20.90;60.40;;;;;;5001865;28;20566;-80
2022/05/26 08:01:01;;;;;;;0.10;0.10;;;21.40;61.50;;;;;;5001667;28;20031;-81
2022/05/26 08:03:26;;;;;;;1.77;0.20;;;20.80;63.60;;;;;;5001892;28;20031;-82
2022/05/26 08:05:52;;;;;;;0.45;0.28;;;20.40;63.60;;;;;;4969615;28;20472;-85
2022/05/26 08:08:18;;;;;;;0.20;0.20;;;20.40;64.30;;;;;;4969219;28;20023;-81
2022/05/26 08:10:44;;;;;;;0.40;0.10;;;21.30;61.50;;;;;;4971066;28;20077;-81
2022/05/26 08:13:10;;;;;;;1.20;0.20;;;21.20;62.70;;;;;;4970732;28;20031;-83
2022/05/26 08:15:35;;;;;;;1.27;0.22;;;21.20;62.20;;;;;;4970605;28;20023;-82
2022/05/26 08:18:01;;;;;;;0.77;0.13;;;21.10;62.40;;;;;;4969422;28;20035;-84
2022/05/26 08:20:27;;;;;;;0.77;0.40;;;20.60;61.60;;;;;;5003391;28;20503;-79
2022/05/26 08:22:53;;;;;;;0.30;0.30;;;20.00;62.90;;;;;;5005837;28;20121;-80
2022/05/26 08:25:19;;;;;;;0.77;0.20;;;19.80;69.60;;;;;;4969620;28;20026;-81
2022/05/26 08:27:44;;;;;;;0.55;0.30;;;20.10;64.80;;;;;;4970292;28;20034;-85
2022/05/26 08:30:11;;;;;;;0.17;0.17;;;20.30;64.40;;;;;;4969175;28;20074;-83
2022/05/26 08:32:36;;;;;;;0.80;0.20;;;20.30;67.40;;;;;;4968769;28;20031;-80
2022/05/26 08:35:08;;;;;;;0.90;0.20;;;20.70;65.40;;;;;;4968631;28;20030;-80
2022/05/26 08:37:34;;;;;;;1.42;0.63;;;20.00;67.90;;;;;;4970205;28;20034;-81
2022/05/26 08:40:00;;;;;;;0.98;0.20;;;19.80;65.70;;;;;;5001315;28;20081;-80
2022/05/26 08:42:35;;;;;;;1.42;0.20;;;19.90;65.30;;;;;;4970181;28;20058;-80
2022/05/26 08:45:06;;;;;;;1.58;0.68;;;20.50;64.30;;;;;;4968609;28;20029;-80
2022/05/26 08:47:39;;;;;;;0.98;0.30;;;20.80;63.00;;;;;;4970027;28;20030;-80
2022/05/26 08:50:10;;;;;;;1.00;0.30;;;20.70;64.40;;;;;;4968226;28;20377;-79
2022/05/26 08:52:58;;;;;;;1.80;0.20;;;20.60;63.50;;;;;;4968517;28;20054;-79
2022/05/26 08:55:32;;;;;;;3.00;0.30;;;20.50;67.30;;;;;;4971071;28;20030;-80
2022/05/26 08:58:13;;;;;;;0.45;0.20;;;20.80;63.70;;;;;;4971676;28;20142;-79
2022/05/26 09:00:41;;;;;;;2.03;0.20;;;20.90;63.40;;;;;;4973416;28;20487;-79
2022/05/26 09:03:34;;;;;;;0.75;0.20;;;20.60;62.90;;;;;;4973150;28;20077;-79
2022/05/26 09:06:20;;;;;;;0.60;0.25;;;20.20;64.50;;;;;;4970575;28;20062;-79
2022/05/26 09:14:33;;;;;;;0.45;0.20;;;19.90;67.80;;;;;;4973341;28;20042;-79
2022/05/26 09:17:03;;;;;;;0.32;0.10;;;20.50;65.90;;;;;;4971550;28;20035;-80
2022/05/26 09:19:48;;;;;;;1.05;0.10;;;21.50;60.80;;;;;;4971469;28;20093;-79
2022/05/26 09:22:44;;;;;;;0.47;0.30;;;21.30;61.60;;;;;;4972881;28;20018;-80
2022/05/26 09:25:44;;;;;;;1.45;0.45;;;21.20;60.40;;;;;;4973135;28;20093;-80
2022/05/26 09:28:10;;;;;;;1.27;0.30;;;21.50;62.60;;;;;;4968647;28;20432;-81
2022/05/26 09:30:37;;;;;;;0.50;0.30;;;21.10;61.80;;;;;;4972644;28;20027;-80
2022/05/26 09:33:17;;;;;;;0.55;0.20;;;20.80;62.40;;;;;;4971173;28;20033;-80
2022/05/26 09:35:43;;;;;;;1.70;0.28;;;21.10;62.00;;;;;;4971287;28;20027;-79
2022/05/26 09:38:18;;;;;;;0.52;0.20;;;21.50;60.40;;;;;;4971446;28;20043;-80
2022/05/26 09:40:46;;;;;;;0.30;0.10;;;21.50;60.50;;;;;;4971140;28;20559;-80
2022/05/26 09:43:20;;;;;;;2.30;0.40;;;21.80;62.90;;;;;;4972857;28;20026;-80
2022/05/26 09:45:49;;;;;;;1.35;0.77;;;21.70;62.90;;;;;;4971335;28;20065;-79
2022/05/26 09:48:26;;;;;;;1.15;0.40;;;21.50;61.20;;;;;;4972299;28;20031;-81
2022/05/26 09:51:04;;;;;;;0.38;0.25;;;21.80;61.70;;;;;;4970991;28;20114;-80
2022/05/26 09:53:45;;;;;;;0.17;0.17;;;21.00;62.90;;;;;;5003659;28;20479;-80
2022/05/26 09:56:31;;;;;;;0.30;0.30;;;21.10;62.50;;;;;;4971120;28;20104;-81
2022/05/26 09:58:56;;;;;;;0.98;0.30;;;20.80;62.30;;;;;;4970880;28;20047;-81
2022/05/26 10:01:28;;;;;;;2.72;0.30;;;21.50;61.70;;;;;;4972313;28;20038;-81
2022/05/26 10:04:13;;;;;;;0.25;0.13;;;21.50;59.50;;;;;;4970515;28;20033;-80
2022/05/26 10:07:07;;;;;;;0.88;0.22;;;21.60;59.10;;;;;;4970452;28;20118;-81
2022/05/26 10:09:56;;;;;;;0.57;0.20;;;21.00;62.40;;;;;;4970669;28;20027;-82
2022/05/26 10:12:42;;;;;;;0.20;0.20;;;21.00;61.70;;;;;;4970833;28;20038;-80
2022/05/26 10:15:26;;;;;;;0.30;0.20;;;21.20;60.90;;;;;;4940898;28;20547;-81
2022/05/26 10:18:13;;;;;;;2.03;0.77;;;21.30;61.00;;;;;;4970714;28;20510;-82
2022/05/26 10:21:09;;;;;;;0.20;0.20;;;20.90;60.80;;;;;;4971782;28;20023;-82
2022/05/26 10:23:55;;;;;;;4.00;0.22;;;20.80;60.80;;;;;;4972205;28;20026;-80
2022/05/26 10:26:56;;;;;;;1.00;0.22;;;20.90;61.90;;;;;;4972867;28;20027;-81
2022/05/26 10:30:00;;;;;;;2.08;1.38;;;21.00;62.00;;;;;;4970386;28;20023;-84
2022/05/26 10:32:50;;;;;;;0.63;0.22;;;21.50;61.50;;;;;;4972468;28;20062;-85
2022/05/26 10:35:59;;;;;;;3.83;0.85;;;21.30;60.90;;;;;;4981866;28;20035;-80
2022/05/26 10:38:41;;;;;;;0.93;0.40;;;21.10;61.90;;;;;;5002039;28;20197;-84
2022/05/26 10:41:15;;;;;;;2.13;0.20;;;21.00;62.80;;;;;;4974742;28;20507;-81
2022/05/26 10:43:49;;;;;;;0.40;0.25;;;21.30;64.30;;;;;;4970048;28;20155;-81
2022/05/26 10:46:18;;;;;;;0.32;0.13;;;21.70;64.30;;;;;;4969933;28;20361;-80
2022/05/26 10:49:23;;;;;;;0.75;0.47;;;21.30;62.10;;;;;;4970985;28;20031;-82
2022/05/26 10:51:58;;;;;;;2.20;0.20;;;20.80;60.90;;;;;;4969859;28;20594;-81
2022/05/26 10:55:05;;;;;;;0.43;0.20;;;22.30;60.00;;;;;;4970060;28;20121;-80
2022/05/26 10:58:37;;;;;;;0.43;0.40;;;23.00;56.70;;;;;;4970100;28;20073;-83
2022/05/26 11:01:10;;;;;;;0.30;0.22;;;23.20;57.20;;;;;;4914552;29;20052;-81
2022/05/26 11:03:47;;;;;;;1.17;0.25;;;23.80;54.10;;;;;;4969498;28;20093;-80
2022/05/26 11:06:32;;;;;;;0.85;0.30;;;23.60;55.00;;;;;;4985725;28;20033;-80
2022/05/26 11:09:20;;;;;;;0.30;0.30;;;23.10;55.60;;;;;;4969862;28;20403;-80
2022/05/26 11:11:52;;;;;;;0.47;0.10;;;23.10;56.60;;;;;;4969774;28;20035;-81
2022/05/26 11:17:57;;;;;;;0.40;0.20;;;22.00;58.00;;;;;;4970797;28;20523;-81
2022/05/26 11:20:30;;;;;;;0.45;0.20;;;21.90;59.50;;;;;;4969450;28;20133;-80
2022/05/26 11:23:03;;;;;;;1.00;0.30;;;21.00;60.60;;;;;;4985704;28;20015;-80
2022/05/26 11:25:43;;;;;;;0.20;0.20;;;20.80;59.80;;;;;;5001872;28;20073;-80
2022/05/26 11:28:21;;;;;;;9.40;0.52;;;21.90;59.60;;;;;;4969376;28;20026;-81
2022/05/26 11:36:55;;;;;;;0.43;0.35;;;23.60;55.80;;;;;;4970911;28;20149;-80
2022/05/26 11:39:40;;;;;;;3.03;0.30;;;24.00;54.30;;;;;;5001902;28;20105;-82
2022/05/26 11:42:25;;;;;;;0.30;0.30;;;24.20;57.00;;;;;;4969444;28;20038;-81
2022/05/26 11:45:13;;;;;;;0.73;0.68;;;24.20;55.50;;;;;;4969054;28;20266;-80
2022/05/26 11:48:00;;;;;;;0.40;0.40;;;23.80;55.10;;;;;;4970567;28;20412;-80
2022/05/26 11:51:23;;;;;;;0.80;0.10;;;24.40;55.70;;;;;;4968956;28;20046;-82
2022/05/26 11:53:51;;;;;;;1.15;0.13;;;23.50;57.00;;;;;;4969130;28;20109;-80
2022/05/26 11:56:25;;;;;;;4.72;1.10;;;23.40;55.90;;;;;;4969125;28;20089;-81
2022/05/26 11:59:28;;;;;;;2.63;0.30;;;23.10;57.70;;;;;;4970341;28;20504;-81
2022/05/26 12:02:00;;;;;;;0.32;0.20;;;22.80;58.90;;;;;;4970324;28;20031;-81
2022/05/26 12:04:32;;;;;;;0.57;0.20;;;23.60;58.40;;;;;;4970086;28;20045;-81
2022/05/26 12:07:22;;;;;;;1.23;0.40;;;26.90;56.90;;;;;;4969031;28;20035;-81
2022/05/26 12:09:49;;;;;;;0.82;0.32;;;24.00;55.40;;;;;;4969264;28;20027;-81
2022/05/26 12:12:21;;;;;;;0.32;0.22;;;23.00;57.90;;;;;;4969172;28;20122;-80
2022/05/26 12:14:46;;;;;;;1.00;0.10;;;22.00;58.70;;;;;;4970849;28;20030;-81
2022/05/26 12:17:30;;;;;;;1.95;0.40;;;21.50;60.40;;;;;;4968760;28;20034;-80
2022/05/26 12:20:11;;;;;;;0.60;0.17;;;21.30;61.90;;;;;;4968682;28;20026;-80
2022/05/26 12:22:52;;;;;;;1.33;0.32;;;21.10;62.00;;;;;;4968935;28;20047;-81
2022/05/26 12:25:26;;;;;;;0.45;0.13;;;21.10;62.20;;;;;;4970140;28;20509;-80
2022/05/26 12:27:53;;;;;;;0.77;0.30;;;21.80;60.50;;;;;;4969212;28;20443;-81
2022/05/26 12:30:44;;;;;;;1.30;0.30;;;22.30;58.40;;;;;;4973284;28;20038;-84
2022/05/26 12:33:21;;;;;;;0.50;0.43;;;22.10;59.90;;;;;;4972687;28;20026;-81
2022/05/26 12:35:56;;;;;;;0.70;0.28;;;21.60;59.10;;;;;;4972579;28;20027;-81
2022/05/26 12:38:29;;;;;;;0.20;0.20;;;21.40;60.30;;;;;;4972629;28;20062;-79
2022/05/26 12:41:14;;;;;;;0.77;0.15;;;21.00;60.70;;;;;;4974135;28;20027;-86
2022/05/26 12:44:20;;;;;;;0.22;0.20;;;20.80;61.00;;;;;;4975107;28;20395;-80
2022/05/26 12:47:16;;;;;;;1.23;0.30;;;21.20;61.70;;;;;;4974802;28;20038;-81
2022/05/26 12:50:03;;;;;;;0.50;0.10;;;22.80;61.00;;;;;;4973346;28;20090;-81
2022/05/26 12:52:49;;;;;;;0.20;0.15;;;23.70;56.50;;;;;;4972602;28;20588;-81
2022/05/26 12:55:27;;;;;;;0.77;0.20;;;23.00;57.10;;;;;;4973219;28;20034;-80
2022/05/26 12:58:06;;;;;;;1.30;0.70;;;22.90;56.80;;;;;;4972770;28;20027;-82
2022/05/26 13:00:42;;;;;;;0.90;0.47;;;23.60;55.30;;;;;;4971744;28;20019;-82
2022/05/26 13:03:26;;;;;;;1.80;0.20;;;23.50;56.50;;;;;;5002704;28;20503;-80
2022/05/26 13:06:22;;;;;;;1.15;0.50;;;23.80;54.70;;;;;;4970253;28;20099;-81
2022/05/26 13:08:50;;;;;;;0.57;0.30;;;25.00;55.10;;;;;;4970593;28;20034;-84
2022/05/26 13:11:21;;;;;;;2.83;0.20;;;24.20;55.00;;;;;;4968307;28;20046;-83
2022/05/26 13:13:58;;;;;;;0.13;0.13;;;24.60;57.40;;;;;;4968300;28;20055;-81
2022/05/26 13:16:37;;;;;;;0.63;0.13;;;24.80;57.00;;;;;;4971639;28;20495;-82
2022/05/26 13:19:15;;;;;;;0.70;0.30;;;25.10;59.10;;;;;;4972129;28;20033;-83
2022/05/26 13:21:44;;;;;;;1.73;0.22;;;24.40;55.70;;;;;;4971738;28;20492;-82
2022/05/26 13:24:25;;;;;;;1.00;0.73;;;23.70;58.40;;;;;;4971671;28;20097;-82
2022/05/26 13:26:59;;;;;;;1.00;0.30;;;24.00;60.30;;;;;;4973308;28;20085;-82
2022/05/26 13:29:26;;;;;;;3.70;0.38;;;23.80;56.70;;;;;;4971772;28;20042;-82
2022/05/26 13:34:49;;;;;;;0.30;0.20;;;23.60;58.80;;;;;;4972908;28;20034;-83
2022/05/26 13:37:21;;;;;;;2.28;0.50;;;24.30;58.90;;;;;;4971563;28;20041;-82
2022/05/26 13:40:05;;;;;;;1.63;0.30;;;24.50;57.10;;;;;;4971359;28;20479;-84
2022/05/26 13:42:32;;;;;;;1.50;0.25;;;23.90;58.90;;;;;;4970909;28;20023;-81
2022/05/26 13:44:58;;;;;;;0.50;0.20;;;23.50;59.70;;;;;;4971462;28;20171;-82
2022/05/26 13:47:24;;;;;;;0.85;0.40;;;24.10;58.20;;;;;;4971648;28;20030;-82
2022/05/26 13:50:28;;;;;;;2.05;0.30;;;23.70;59.50;;;;;;4971280;28;20039;-82
2022/05/26 13:52:54;;;;;;;1.33;0.30;;;23.70;58.80;;;;;;4956071;28;20050;-83
2022/05/26 13:55:23;;;;;;;0.30;0.20;;;23.00;59.50;;;;;;4971391;28;20484;-83
2022/05/26 13:57:55;;;;;;;0.43;0.30;;;23.10;58.30;;;;;;4972306;28;20118;-84
2022/05/26 14:00:31;;;;;;;1.40;0.20;;;23.50;57.30;;;;;;4971182;28;20054;-82